Eiwamaru — JG5742 — position and weather

sailwx.info

Track history (hours):
 
Tides and Currents Weather Stations Pressure Air Temp Water Temp Dewpoint Dewpoint Depression Visibility Wind Speed Wind Dir Waves Ship Positions

Eiwamaru

Last reported at 2014-Aug-26 06:31 UTC. Time now 2014-Aug-27 11:07 UTC.
Position N 34°58' E 139°25'.

Length 80 m; draft 4.8 m.

Type: Tanker. MMSI: 431101045.

Date/timePositionNaut miles runAvg speedWind from/ knotsBaromVisibWave heightAir tempDewpointWater temp
2014-Aug-26 06:31N 34°58' E 139°25'1313.1
2014-Aug-26 05:33N 35°05' E 139°38'1312.5
2014-Aug-26 04:33N 35°16' E 139°46'1111.0
2014-Aug-26 03:33N 35°27' E 139°47'1312.8
2014-Aug-26 02:34N 35°31' E 140°02'1 0.7
2014-Aug-26 01:33N 35°31' E 140°03'0 0.0
2014-Aug-26 00:34N 35°31' E 140°03'0 0.0
2014-Aug-25 23:34N 35°31' E 140°03'3 3.2
2014-Aug-25 22:34N 35°32' E 139°59'0 0.0
2014-Aug-25 21:33N 35°32' E 139°59'0 0.0
2014-Aug-25 20:33N 35°32' E 139°59'0 0.0
2014-Aug-25 19:34N 35°32' E 139°59'0 0.0
2014-Aug-25 18:34N 35°32' E 139°59'0 0.0
2014-Aug-25 17:34N 35°32' E 139°59'0 0.0
2014-Aug-25 16:33N 35°32' E 139°59'0 0.0
2014-Aug-25 15:33N 35°32' E 139°59'0 0.1
2014-Aug-25 14:34N 35°32' E 139°59'0 0.0
2014-Aug-25 13:34N 35°32' E 139°59'0 0.0
2014-Aug-25 12:33N 35°32' E 139°59'0 0.0
2014-Aug-25 11:33N 35°32' E 139°59'0 0.0
2014-Aug-25 10:33N 35°32' E 139°59'5 4.9
2014-Aug-25 09:33N 35°30' E 139°54'1312.7
2014-Aug-25 08:33N 35°20' E 139°44'1212.1
2014-Aug-25 07:33N 35°08' E 139°47'1312.8
2014-Aug-25 06:33N 34°59' E 139°35'54 1.7
2014-Aug-23 23:20N 35°02' E 138°30'69 3.5
2014-Aug-23 03:33N 35°31' E 139°46'0 0.1
2014-Aug-23 02:33N 35°31' E 139°46'2 2.3
2014-Aug-23 01:33N 35°29' E 139°48'0 0.0
2014-Aug-23 00:33N 35°29' E 139°48'0 0.0
2014-Aug-22 23:33N 35°29' E 139°48'0 0.0
2014-Aug-22 22:33N 35°29' E 139°48'0 0.0
2014-Aug-22 21:33N 35°29' E 139°48'0 0.0
2014-Aug-22 20:33N 35°29' E 139°48'0 0.0
2014-Aug-22 19:33N 35°29' E 139°48'0 0.0
2014-Aug-22 18:33N 35°29' E 139°48'8 7.8
2014-Aug-22 17:33N 35°21' E 139°45'1212.5
2014-Aug-22 16:33N 35°09' E 139°46'2013.8
2014-Aug-22 15:05N 34°55' E 139°28'5 0.1
2014-Aug-21 06:33N 34°59' E 139°26'1312.8
2014-Aug-21 05:33N 35°06' E 139°38'1211.7
2014-Aug-21 04:33N 35°16' E 139°46'1111.2
2014-Aug-21 03:33N 35°27' E 139°46'3 3.4
2014-Aug-21 02:33N 35°31' E 139°46'0 0.0
2014-Aug-21 01:33N 35°31' E 139°46'0 0.0
2014-Aug-21 00:33N 35°31' E 139°46'0 0.0
2014-Aug-20 23:34N 35°31' E 139°46'0 0.4
2014-Aug-20 22:33N 35°30' E 139°46'0 0.0
2014-Aug-20 21:33N 35°30' E 139°46'0 0.0
2014-Aug-20 20:34N 35°30' E 139°46'0 0.0
2014-Aug-20 19:34N 35°30' E 139°46'0 0.0
2014-Aug-20 18:33N 35°30' E 139°46'0 0.0
2014-Aug-20 17:33N 35°30' E 139°46'0 0.0
2014-Aug-20 16:34N 35°30' E 139°46'0 0.0
2014-Aug-20 15:33N 35°30' E 139°46'0 0.0
2014-Aug-20 14:33N 35°30' E 139°46'0 0.0
2014-Aug-20 13:33N 35°30' E 139°46'0 0.0
2014-Aug-20 12:33N 35°30' E 139°46'0 0.0
2014-Aug-20 11:34N 35°30' E 139°46'0 0.0
2014-Aug-20 10:33N 35°30' E 139°46'0 0.0
2014-Aug-20 09:33N 35°30' E 139°46'0 0.0
2014-Aug-20 08:33N 35°30' E 139°46'0 0.0
2014-Aug-20 07:33N 35°30' E 139°46'0 0.0
2014-Aug-20 06:33N 35°30' E 139°46'0 0.0
2014-Aug-20 05:33N 35°30' E 139°46'0 0.0
2014-Aug-20 04:34N 35°30' E 139°46'0 0.0
2014-Aug-20 03:34N 35°30' E 139°46'0 0.0
2014-Aug-20 02:34N 35°30' E 139°46'0 0.0
2014-Aug-20 01:33N 35°30' E 139°46'2 1.7
2014-Aug-20 00:34N 35°30' E 139°48'1 1.0
2014-Aug-19 23:34N 35°29' E 139°48'0 0.0
2014-Aug-19 22:33N 35°29' E 139°48'0 0.0
2014-Aug-19 21:34N 35°29' E 139°48'0 0.0
2014-Aug-19 20:34N 35°29' E 139°48'0 0.0
2014-Aug-19 19:33N 35°29' E 139°48'0 0.0
2014-Aug-19 18:33N 35°29' E 139°48'0 0.0
2014-Aug-19 17:33N 35°29' E 139°48'0 0.0
2014-Aug-19 16:34N 35°29' E 139°48'0 0.0
2014-Aug-19 15:33N 35°29' E 139°48'0 0.0
2014-Aug-19 14:34N 35°29' E 139°48'0 0.0
2014-Aug-19 13:34N 35°29' E 139°48'0 0.0
2014-Aug-19 12:33N 35°29' E 139°48'4 3.5
2014-Aug-19 11:34N 35°25' E 139°47'1211.8
2014-Aug-19 10:33N 35°14' E 139°47'1413.4
2014-Aug-19 09:32N 35°00' E 139°44'54 9.8
2014-Aug-19 04:04N 35°26' E 140°41'  
2014-Aug-16 14:33N 35°32' E 140°48'1312.7
2014-Aug-16 13:33N 35°22' E 140°38'2813.4
2014-Aug-16 11:29N 35°02' E 140°14'1212.7
2014-Aug-16 10:33N 34°55' E 140°02'1212.4
2014-Aug-16 09:33N 34°52' E 139°48'1212.5
2014-Aug-16 08:33N 35°04' E 139°44'1312.7
2014-Aug-16 07:33N 35°16' E 139°46'1010.4
2014-Aug-16 06:33N 35°27' E 139°47'  
Track history (hours):
 
Tides and Currents Weather Stations Pressure Air Temp Water Temp Dewpoint Dewpoint Depression Visibility Wind Speed Wind Dir Waves Ship Positions

Eiwamaru

Last reported at 2014-Aug-26 06:31 UTC. Time now 2014-Aug-27 11:07 UTC.
Position N 34°58' E 139°25'.

Length 80 m; draft 4.8 m.

Type: Tanker. MMSI: 431101045.

Date/timePositionNaut miles runAvg speedWind from/ knotsBaromVisibWave heightAir tempDewpointWater temp
2014-Aug-26 06:31N 34°58' E 139°25'1313.1
2014-Aug-26 05:33N 35°05' E 139°38'1312.5
2014-Aug-26 04:33N 35°16' E 139°46'1111.0
2014-Aug-26 03:33N 35°27' E 139°47'1312.8
2014-Aug-26 02:34N 35°31' E 140°02'1 0.7
2014-Aug-26 01:33N 35°31' E 140°03'0 0.0
2014-Aug-26 00:34N 35°31' E 140°03'0 0.0
2014-Aug-25 23:34N 35°31' E 140°03'3 3.2
2014-Aug-25 22:34N 35°32' E 139°59'0 0.0
2014-Aug-25 21:33N 35°32' E 139°59'0 0.0
2014-Aug-25 20:33N 35°32' E 139°59'0 0.0
2014-Aug-25 19:34N 35°32' E 139°59'0 0.0
2014-Aug-25 18:34N 35°32' E 139°59'0 0.0
2014-Aug-25 17:34N 35°32' E 139°59'0 0.0
2014-Aug-25 16:33N 35°32' E 139°59'0 0.0
2014-Aug-25 15:33N 35°32' E 139°59'0 0.1
2014-Aug-25 14:34N 35°32' E 139°59'0 0.0
2014-Aug-25 13:34N 35°32' E 139°59'0 0.0
2014-Aug-25 12:33N 35°32' E 139°59'0 0.0
2014-Aug-25 11:33N 35°32' E 139°59'0 0.0
2014-Aug-25 10:33N 35°32' E 139°59'5 4.9
2014-Aug-25 09:33N 35°30' E 139°54'1312.7
2014-Aug-25 08:33N 35°20' E 139°44'1212.1
2014-Aug-25 07:33N 35°08' E 139°47'1312.8
2014-Aug-25 06:33N 34°59' E 139°35'54 1.7
2014-Aug-23 23:20N 35°02' E 138°30'69 3.5
2014-Aug-23 03:33N 35°31' E 139°46'0 0.1
2014-Aug-23 02:33N 35°31' E 139°46'2 2.3
2014-Aug-23 01:33N 35°29' E 139°48'0 0.0
2014-Aug-23 00:33N 35°29' E 139°48'0 0.0
2014-Aug-22 23:33N 35°29' E 139°48'0 0.0
2014-Aug-22 22:33N 35°29' E 139°48'0 0.0
2014-Aug-22 21:33N 35°29' E 139°48'0 0.0
2014-Aug-22 20:33N 35°29' E 139°48'0 0.0
2014-Aug-22 19:33N 35°29' E 139°48'0 0.0
2014-Aug-22 18:33N 35°29' E 139°48'8 7.8
2014-Aug-22 17:33N 35°21' E 139°45'1212.5
2014-Aug-22 16:33N 35°09' E 139°46'2013.8
2014-Aug-22 15:05N 34°55' E 139°28'5 0.1
2014-Aug-21 06:33N 34°59' E 139°26'1312.8
2014-Aug-21 05:33N 35°06' E 139°38'1211.7
2014-Aug-21 04:33N 35°16' E 139°46'1111.2
2014-Aug-21 03:33N 35°27' E 139°46'3 3.4
2014-Aug-21 02:33N 35°31' E 139°46'0 0.0
2014-Aug-21 01:33N 35°31' E 139°46'0 0.0
2014-Aug-21 00:33N 35°31' E 139°46'0 0.0
2014-Aug-20 23:34N 35°31' E 139°46'0 0.4
2014-Aug-20 22:33N 35°30' E 139°46'0 0.0
2014-Aug-20 21:33N 35°30' E 139°46'0 0.0
2014-Aug-20 20:34N 35°30' E 139°46'0 0.0
2014-Aug-20 19:34N 35°30' E 139°46'0 0.0
2014-Aug-20 18:33N 35°30' E 139°46'0 0.0
2014-Aug-20 17:33N 35°30' E 139°46'0 0.0
2014-Aug-20 16:34N 35°30' E 139°46'0 0.0
2014-Aug-20 15:33N 35°30' E 139°46'0 0.0
2014-Aug-20 14:33N 35°30' E 139°46'0 0.0
2014-Aug-20 13:33N 35°30' E 139°46'0 0.0
2014-Aug-20 12:33N 35°30' E 139°46'0 0.0
2014-Aug-20 11:34N 35°30' E 139°46'0 0.0
2014-Aug-20 10:33N 35°30' E 139°46'0 0.0
2014-Aug-20 09:33N 35°30' E 139°46'0 0.0
2014-Aug-20 08:33N 35°30' E 139°46'0 0.0
2014-Aug-20 07:33N 35°30' E 139°46'0 0.0
2014-Aug-20 06:33N 35°30' E 139°46'0 0.0
2014-Aug-20 05:33N 35°30' E 139°46'0 0.0
2014-Aug-20 04:34N 35°30' E 139°46'0 0.0
2014-Aug-20 03:34N 35°30' E 139°46'0 0.0
2014-Aug-20 02:34N 35°30' E 139°46'0 0.0
2014-Aug-20 01:33N 35°30' E 139°46'2 1.7
2014-Aug-20 00:34N 35°30' E 139°48'1 1.0
2014-Aug-19 23:34N 35°29' E 139°48'0 0.0
2014-Aug-19 22:33N 35°29' E 139°48'0 0.0
2014-Aug-19 21:34N 35°29' E 139°48'0 0.0
2014-Aug-19 20:34N 35°29' E 139°48'0 0.0
2014-Aug-19 19:33N 35°29' E 139°48'0 0.0
2014-Aug-19 18:33N 35°29' E 139°48'0 0.0
2014-Aug-19 17:33N 35°29' E 139°48'0 0.0
2014-Aug-19 16:34N 35°29' E 139°48'0 0.0
2014-Aug-19 15:33N 35°29' E 139°48'0 0.0
2014-Aug-19 14:34N 35°29' E 139°48'0 0.0
2014-Aug-19 13:34N 35°29' E 139°48'0 0.0
2014-Aug-19 12:33N 35°29' E 139°48'4 3.5
2014-Aug-19 11:34N 35°25' E 139°47'1211.8
2014-Aug-19 10:33N 35°14' E 139°47'1413.4
2014-Aug-19 09:32N 35°00' E 139°44'54 9.8
2014-Aug-19 04:04N 35°26' E 140°41'  
2014-Aug-16 14:33N 35°32' E 140°48'1312.7
2014-Aug-16 13:33N 35°22' E 140°38'2813.4
2014-Aug-16 11:29N 35°02' E 140°14'1212.7
2014-Aug-16 10:33N 34°55' E 140°02'1212.4
2014-Aug-16 09:33N 34°52' E 139°48'1212.5
2014-Aug-16 08:33N 35°04' E 139°44'1312.7
2014-Aug-16 07:33N 35°16' E 139°46'1010.4
2014-Aug-16 06:33N 35°27' E 139°47'  

Dump ship's entire track history